createdAt,value
2018-10-06T00:00:37.016Z,97158.34
2018-10-06T00:03:06.232Z,97157.45
2018-10-06T00:05:35.484Z,97154.69
2018-10-06T00:08:04.715Z,97157.91
2018-10-06T00:10:33.933Z,97159.53
2018-10-06T00:13:03.164Z,97160.67
2018-10-06T00:15:32.376Z,97164.92
2018-10-06T00:18:01.576Z,97158.19
2018-10-06T00:20:30.808Z,97154.55
2018-10-06T00:23:00.004Z,97144.27
2018-10-06T00:25:29.231Z,97140.81
2018-10-06T00:27:58.465Z,97136.91
2018-10-06T00:30:27.686Z,97139.86
2018-10-06T00:32:56.973Z,97140.20
2018-10-06T00:35:26.256Z,97143.11
2018-10-06T00:37:55.718Z,97147.36
2018-10-06T00:40:24.931Z,97147.34
2018-10-06T00:42:54.152Z,97138.03
2018-10-06T00:45:23.394Z,97137.28
2018-10-06T00:47:52.598Z,97134.98
2018-10-06T00:50:21.840Z,97138.67
2018-10-06T00:52:51.056Z,97138.13
2018-10-06T00:55:20.363Z,97139.34
2018-10-06T00:57:49.577Z,97127.45
2018-10-06T01:00:18.836Z,97131.03
2018-10-06T01:02:48.070Z,97135.45
2018-10-06T01:05:17.471Z,97136.89
2018-10-06T01:07:46.709Z,97130.13
2018-10-06T01:10:15.925Z,97128.97
2018-10-06T01:12:45.141Z,97133.23
2018-10-06T01:15:14.327Z,97127.49
2018-10-06T01:17:43.553Z,97115.77
2018-10-06T01:20:12.812Z,97112.98
2018-10-06T01:22:42.076Z,97100.48
2018-10-06T01:25:11.280Z,97106.70
2018-10-06T01:27:40.537Z,97104.34
2018-10-06T01:30:09.788Z,97098.86
2018-10-06T01:32:39.008Z,97094.56
2018-10-06T01:35:08.213Z,97090.63
2018-10-06T01:37:45.039Z,97089.55
2018-10-06T01:40:14.233Z,97085.27
2018-10-06T01:42:44.228Z,97086.08
2018-10-06T01:45:13.420Z,97081.36
2018-10-06T01:47:42.609Z,97079.92
2018-10-06T01:50:11.848Z,97074.66
2018-10-06T01:52:41.046Z,97073.67
2018-10-06T01:55:10.208Z,97062.53
2018-10-06T01:57:39.397Z,97065.52
2018-10-06T02:00:08.673Z,97074.95
2018-10-06T02:02:37.857Z,97077.13
2018-10-06T02:05:07.040Z,97084.38
2018-10-06T02:07:36.296Z,97085.48
2018-10-06T02:10:05.507Z,97089.20
2018-10-06T02:12:34.696Z,97083.52
2018-10-06T02:15:03.971Z,97080.95
2018-10-06T02:17:33.175Z,97082.56
2018-10-06T02:20:02.374Z,97085.11
2018-10-06T02:22:31.592Z,97093.14
2018-10-06T02:25:00.772Z,97094.89
2018-10-06T02:27:29.986Z,97093.95
2018-10-06T02:29:59.235Z,97101.20
2018-10-06T02:32:28.473Z,97102.42
2018-10-06T02:34:58.019Z,97096.81
2018-10-06T02:37:27.444Z,97093.35
2018-10-06T02:39:56.676Z,97096.74
2018-10-06T02:42:25.903Z,97089.41
2018-10-06T02:44:55.119Z,97081.33
2018-10-06T02:47:24.334Z,97075.33
2018-10-06T02:49:53.547Z,97069.37
2018-10-06T02:52:22.898Z,97067.95
2018-10-06T02:54:52.202Z,97076.44
2018-10-06T02:57:21.419Z,97079.79
2018-10-06T02:59:50.662Z,97077.62
2018-10-06T03:02:19.884Z,97076.55
2018-10-06T03:04:49.141Z,97076.48
2018-10-06T03:07:18.363Z,97074.69
2018-10-06T03:09:47.587Z,97072.78
2018-10-06T03:12:16.788Z,97076.10
2018-10-06T03:14:45.998Z,97075.23
2018-10-06T03:17:15.200Z,97080.99
2018-10-06T03:19:44.425Z,97074.63
2018-10-06T03:22:13.727Z,97070.73
2018-10-06T03:24:42.959Z,97070.19
2018-10-06T03:27:12.176Z,97069.17
2018-10-06T03:29:41.393Z,97063.05
2018-10-06T03:32:10.595Z,97066.17
2018-10-06T03:34:39.815Z,97060.08
2018-10-06T03:37:09.070Z,97054.16
2018-10-06T03:39:38.300Z,97050.89
2018-10-06T03:42:07.560Z,97043.31
2018-10-06T03:44:36.799Z,97045.16
2018-10-06T03:47:06.151Z,97047.52
2018-10-06T03:49:35.372Z,97037.30
2018-10-06T03:52:04.583Z,97042.36
2018-10-06T03:54:33.965Z,97041.79
2018-10-06T03:57:03.555Z,97033.84
2018-10-06T03:59:33.043Z,97027.83
2018-10-06T04:02:02.477Z,97025.16
2018-10-06T04:04:31.820Z,97027.58
2018-10-06T04:07:01.138Z,97036.01
2018-10-06T04:09:30.359Z,97033.28
2018-10-06T04:11:59.582Z,97034.82
2018-10-06T04:14:28.839Z,97034.73
2018-10-06T04:16:58.126Z,97033.44
2018-10-06T04:19:27.344Z,97036.33
2018-10-06T04:21:56.643Z,97032.05
2018-10-06T04:24:25.889Z,97044.03
2018-10-06T04:26:55.103Z,97040.64
2018-10-06T04:29:24.386Z,97042.48
2018-10-06T04:31:53.607Z,97042.17
2018-10-06T04:34:22.828Z,97052.47
2018-10-06T04:36:52.143Z,97044.09
2018-10-06T04:39:38.143Z,97044.13
2018-10-06T04:42:07.555Z,97033.45
2018-10-06T04:44:36.907Z,97050.16
2018-10-06T04:47:06.239Z,97045.47
2018-10-06T04:49:35.468Z,97056.56
2018-10-06T04:52:04.770Z,97060.42
2018-10-06T04:54:34.065Z,97059.05
2018-10-06T04:57:03.275Z,97055.56
2018-10-06T04:59:32.480Z,97046.05
2018-10-06T05:02:01.680Z,97049.39
2018-10-06T05:04:30.917Z,97055.73
2018-10-06T05:07:00.144Z,97053.00
2018-10-06T05:09:29.351Z,97060.77
2018-10-06T05:11:58.549Z,97058.05
2018-10-06T05:14:27.741Z,97057.53
2018-10-06T05:16:56.940Z,97057.46
2018-10-06T05:19:26.168Z,97062.59
2018-10-06T05:21:55.407Z,97053.22
2018-10-06T05:24:24.608Z,97049.05
2018-10-06T05:26:53.814Z,97051.62
2018-10-06T05:29:23.022Z,97049.92
2018-10-06T05:31:52.256Z,97047.27
2018-10-06T05:34:21.678Z,97056.64
2018-10-06T05:36:51.007Z,97050.48
2018-10-06T05:39:20.234Z,97049.27
2018-10-06T05:41:49.469Z,97051.12
2018-10-06T05:44:18.689Z,97055.96
2018-10-06T05:46:47.899Z,97061.64
2018-10-06T05:49:17.102Z,97063.51
2018-10-06T05:51:46.324Z,97063.21
2018-10-06T05:54:15.543Z,97053.08
2018-10-06T05:56:44.759Z,97060.48
2018-10-06T05:59:13.982Z,97057.65
2018-10-06T06:01:43.187Z,97059.09
2018-10-06T06:04:12.433Z,97054.88
2018-10-06T06:06:41.651Z,97059.40
2018-10-06T06:09:10.866Z,97053.20
2018-10-06T06:11:40.123Z,97059.02
2018-10-06T06:14:09.301Z,97053.28
2018-10-06T06:16:38.509Z,97054.83
2018-10-06T06:19:07.727Z,97049.60
2018-10-06T06:21:36.961Z,97053.70
2018-10-06T06:24:06.176Z,97062.56
2018-10-06T06:26:35.377Z,97056.69
2018-10-06T06:29:04.577Z,97065.70
2018-10-06T06:31:33.819Z,97060.19
2018-10-06T06:34:03.050Z,97057.70
2018-10-06T06:36:32.255Z,97068.52
2018-10-06T06:39:01.464Z,97058.63
2018-10-06T06:41:30.781Z,97057.28
2018-10-06T06:44:00.030Z,97045.45
2018-10-06T06:46:29.240Z,97045.98
2018-10-06T06:48:58.455Z,97045.17
2018-10-06T06:51:27.679Z,97042.19
2018-10-06T06:53:56.885Z,97034.47
2018-10-06T06:56:26.149Z,97027.61
2018-10-06T06:58:55.407Z,97027.19
2018-10-06T07:01:24.677Z,97025.45
2018-10-06T07:03:53.893Z,97020.73
2018-10-06T07:06:23.164Z,97025.92
2018-10-06T07:08:52.373Z,97029.80
2018-10-06T07:11:21.584Z,97025.08
2018-10-06T07:13:50.897Z,97018.17
2018-10-06T07:16:20.117Z,97021.19
2018-10-06T07:18:49.387Z,97017.74
2018-10-06T07:21:18.603Z,97019.05
2018-10-06T07:23:47.820Z,97008.28
2018-10-06T07:26:17.055Z,97009.14
2018-10-06T07:28:46.277Z,97013.01
2018-10-06T07:31:15.468Z,97014.30
2018-10-06T07:33:44.679Z,97016.92
2018-10-06T07:36:13.948Z,97017.75
2018-10-06T07:38:43.171Z,97027.26
2018-10-06T07:41:12.449Z,97033.70
2018-10-06T07:43:41.688Z,97027.70
2018-10-06T07:46:10.948Z,97031.56
2018-10-06T07:48:40.183Z,97030.64
2018-10-06T07:51:09.407Z,97031.93
2018-10-06T07:53:38.779Z,97031.08
2018-10-06T07:56:08.080Z,97027.99
2018-10-06T07:58:37.352Z,97037.47
2018-10-06T08:01:06.612Z,97033.11
2018-10-06T08:03:35.915Z,97040.67
2018-10-06T08:06:05.198Z,97035.41
2018-10-06T08:08:34.527Z,97034.13
2018-10-06T08:11:03.756Z,97030.69
2018-10-06T08:13:32.992Z,97034.59
2018-10-06T08:16:02.233Z,97031.97
2018-10-06T08:18:31.468Z,97032.88
2018-10-06T08:21:00.708Z,97031.95
2018-10-06T08:23:29.965Z,97024.57
2018-10-06T08:25:59.200Z,97023.71
2018-10-06T08:28:28.443Z,97024.50
2018-10-06T08:30:57.668Z,97021.37
2018-10-06T08:33:26.940Z,97015.94
2018-10-06T08:35:56.172Z,97018.40
2018-10-06T08:38:25.419Z,97020.25
2018-10-06T08:40:54.615Z,97016.55
2018-10-06T08:43:23.847Z,97007.61
2018-10-06T08:45:53.073Z,97001.90
2018-10-06T08:48:22.317Z,96992.55
2018-10-06T08:50:51.531Z,96998.73
2018-10-06T08:53:20.791Z,96989.72
2018-10-06T08:55:50.051Z,96998.30
2018-10-06T08:58:19.249Z,97000.23
2018-10-06T09:00:48.475Z,96996.02
2018-10-06T09:03:17.687Z,96989.72
2018-10-06T09:05:46.901Z,96995.52
2018-10-06T09:08:16.204Z,96990.19
2018-10-06T09:10:45.452Z,96992.44
2018-10-06T09:13:14.638Z,96988.31
2018-10-06T09:15:43.851Z,96986.81
2018-10-06T09:18:13.080Z,96983.88
2018-10-06T09:20:42.346Z,96980.17
2018-10-06T09:23:11.654Z,96976.61
2018-10-06T09:25:40.889Z,96973.05
2018-10-06T09:28:10.127Z,96976.73
2018-10-06T09:30:39.309Z,96975.72
2018-10-06T09:33:08.555Z,96976.56
2018-10-06T09:35:37.767Z,96979.78
2018-10-06T09:38:07.048Z,96977.56
2018-10-06T09:40:36.243Z,96975.89
2018-10-06T09:43:05.456Z,96971.03
2018-10-06T09:45:34.727Z,96979.22
2018-10-06T09:48:04.017Z,96971.44
2018-10-06T09:50:33.224Z,96953.19
2018-10-06T09:53:02.451Z,96966.72
2018-10-06T09:55:31.699Z,96962.94
2018-10-06T09:58:00.924Z,96955.53
2018-10-06T10:00:35.354Z,96945.64
2018-10-06T10:03:09.831Z,96948.89
2018-10-06T10:05:44.530Z,96944.52
2018-10-06T10:08:13.733Z,96950.42
2018-10-06T10:10:42.933Z,96944.55
2018-10-06T10:13:12.149Z,96935.44
2018-10-06T10:15:41.378Z,96940.72
2018-10-06T10:18:10.992Z,96936.35
2018-10-06T10:20:40.088Z,96924.47
2018-10-06T10:23:09.657Z,96922.69
2018-10-06T10:25:39.130Z,96919.12
2018-10-06T10:28:08.341Z,96915.78
2018-10-06T10:30:37.557Z,96915.31
2018-10-06T10:33:06.853Z,96911.36
2018-10-06T10:35:36.095Z,96913.40
2018-10-06T10:38:05.279Z,96905.03
2018-10-06T10:40:34.520Z,96900.03
2018-10-06T10:43:03.745Z,96897.19
2018-10-06T10:45:32.999Z,96896.97
2018-10-06T10:48:02.237Z,96889.88
2018-10-06T10:50:31.536Z,96883.06
2018-10-06T10:53:00.756Z,96871.27
2018-10-06T10:55:30.080Z,96874.74
2018-10-06T10:57:59.320Z,96870.69
2018-10-06T11:00:28.655Z,96872.39
2018-10-06T11:02:57.882Z,96872.36
2018-10-06T11:05:27.112Z,96861.66
2018-10-06T11:07:56.335Z,96869.20
2018-10-06T11:10:25.587Z,96864.91
2018-10-06T11:12:54.849Z,96855.88
2018-10-06T11:15:24.149Z,96852.47
2018-10-06T11:17:53.524Z,96852.84
2018-10-06T11:20:22.763Z,96840.26
2018-10-06T11:22:51.990Z,96836.03
2018-10-06T11:25:21.229Z,96835.02
2018-10-06T11:27:50.455Z,96824.33
2018-10-06T11:30:19.761Z,96821.22
2018-10-06T11:32:49.227Z,96818.14
2018-10-06T11:35:18.869Z,96813.27
2018-10-06T11:37:48.271Z,96817.67
2018-10-06T11:40:17.474Z,96802.86
2018-10-06T11:42:46.724Z,96808.54
2018-10-06T11:45:16.029Z,96803.70
2018-10-06T11:47:45.324Z,96795.67
2018-10-06T11:50:14.631Z,96792.34
2018-10-06T11:52:43.831Z,96786.01
2018-10-06T11:55:13.185Z,96787.41
2018-10-06T11:57:42.436Z,96780.86
2018-10-06T12:00:11.865Z,96774.34
2018-10-06T12:02:41.064Z,96776.44
2018-10-06T12:05:10.315Z,96775.16
2018-10-06T12:07:39.957Z,96765.42
2018-10-06T12:10:09.691Z,96761.31
2018-10-06T12:12:38.972Z,96746.54
2018-10-06T12:15:08.260Z,96746.67
2018-10-06T12:17:37.544Z,96749.91
2018-10-06T12:20:06.837Z,96736.95
2018-10-06T12:22:36.079Z,96725.19
2018-10-06T12:25:05.462Z,96725.03
2018-10-06T12:27:34.747Z,96718.63
2018-10-06T12:30:04.012Z,96718.36
2018-10-06T12:32:33.286Z,96719.08
2018-10-06T12:35:02.697Z,96714.38
2018-10-06T12:37:32.012Z,96704.28
2018-10-06T12:40:01.309Z,96706.06
2018-10-06T12:42:30.552Z,96702.38
2018-10-06T12:44:59.877Z,96700.25
2018-10-06T12:47:29.359Z,96704.09
2018-10-06T12:49:58.631Z,96687.70
2018-10-06T12:52:27.892Z,96683.57
2018-10-06T12:54:57.178Z,96682.48
2018-10-06T12:57:26.418Z,96688.86
2018-10-06T12:59:55.735Z,96677.90
2018-10-06T13:02:24.995Z,96677.87
2018-10-06T13:04:54.243Z,96666.19
2018-10-06T13:07:23.568Z,96663.74
2018-10-06T13:09:52.892Z,96666.95
2018-10-06T13:12:22.305Z,96661.91
2018-10-06T13:14:51.559Z,96665.37
2018-10-06T13:17:20.791Z,96660.04
2018-10-06T13:19:50.036Z,96653.02
2018-10-06T13:22:19.364Z,96654.20
2018-10-06T13:24:48.682Z,96646.56
2018-10-06T13:27:17.967Z,96648.31
2018-10-06T13:29:47.271Z,96642.03
2018-10-06T13:32:16.643Z,96642.64
2018-10-06T13:34:45.936Z,96640.52
2018-10-06T13:37:15.235Z,96639.81
2018-10-06T13:39:44.553Z,96639.56
2018-10-06T13:42:13.831Z,96645.75
2018-10-06T13:44:43.217Z,96641.34
2018-10-06T13:47:12.497Z,96642.73
2018-10-06T13:49:41.832Z,96641.72
2018-10-06T13:52:11.248Z,96633.00
2018-10-06T13:54:40.528Z,96633.66
2018-10-06T13:57:10.700Z,96629.02
2018-10-06T13:59:39.973Z,96629.28
2018-10-06T14:02:09.287Z,96632.13
2018-10-06T14:04:38.589Z,96624.78
2018-10-06T14:07:07.909Z,96622.08
2018-10-06T14:09:37.165Z,96620.36
2018-10-06T14:12:06.533Z,96617.08
2018-10-06T14:14:35.800Z,96611.17
2018-10-06T14:17:05.066Z,96606.84
2018-10-06T14:19:34.348Z,96602.23
2018-10-06T14:22:03.689Z,96601.33
2018-10-06T14:24:32.950Z,96608.92
2018-10-06T14:27:02.376Z,96601.44
2018-10-06T14:29:31.630Z,96592.55
2018-10-06T14:32:00.915Z,96593.86
2018-10-06T14:34:30.164Z,96589.20
2018-10-06T14:36:59.471Z,96581.96
2018-10-06T14:39:28.761Z,96581.73
2018-10-06T14:41:58.153Z,96586.34
2018-10-06T14:44:27.519Z,96579.23
2018-10-06T14:46:56.700Z,96580.93
2018-10-06T14:49:25.916Z,96580.10
2018-10-06T14:51:55.180Z,96567.00
2018-10-06T14:54:24.418Z,96566.86
2018-10-06T14:56:53.698Z,96572.35
2018-10-06T14:59:22.880Z,96565.70
2018-10-06T15:01:52.151Z,96564.92
2018-10-06T15:04:21.461Z,96562.20
2018-10-06T15:06:50.718Z,96561.23
2018-10-06T15:09:20.072Z,96563.99
2018-10-06T15:11:49.344Z,96569.98
2018-10-06T15:14:18.640Z,96552.64
2018-10-06T15:16:47.843Z,96551.70
2018-10-06T15:19:17.085Z,96550.15
2018-10-06T15:21:46.401Z,96547.55
2018-10-06T15:24:15.633Z,96544.92
2018-10-06T15:26:44.836Z,96538.45
2018-10-06T15:29:14.083Z,96537.17
2018-10-06T15:31:43.328Z,96540.86
2018-10-06T15:34:12.653Z,96543.30
2018-10-06T15:36:41.959Z,96540.77
2018-10-06T15:39:11.219Z,96542.80
2018-10-06T15:41:40.437Z,96540.03
2018-10-06T15:44:09.681Z,96540.56
2018-10-06T15:46:39.145Z,96539.14
2018-10-06T15:49:08.475Z,96539.12
2018-10-06T15:51:37.682Z,96542.41
2018-10-06T15:54:07.147Z,96542.80
2018-10-06T15:56:36.435Z,96536.43
2018-10-06T15:59:05.732Z,96535.33
2018-10-06T16:01:34.973Z,96530.30
2018-10-06T16:04:04.203Z,96527.99
2018-10-06T16:06:33.488Z,96532.27
2018-10-06T16:09:02.716Z,96543.34
2018-10-06T16:11:31.928Z,96538.38
2018-10-06T16:14:01.164Z,96535.45
2018-10-06T16:16:30.372Z,96532.86
2018-10-06T16:18:59.600Z,96528.39
2018-10-06T16:21:28.867Z,96529.75
2018-10-06T16:23:58.054Z,96534.70
2018-10-06T16:26:27.294Z,96532.41
2018-10-06T16:28:56.521Z,96535.18
2018-10-06T16:31:25.723Z,96532.05
2018-10-06T16:33:55.002Z,96530.27
2018-10-06T16:36:24.281Z,96523.08
2018-10-06T16:38:53.537Z,96525.69
2018-10-06T16:41:22.767Z,96527.69
2018-10-06T16:43:51.922Z,96527.46
2018-10-06T16:46:21.204Z,96531.56
2018-10-06T16:48:50.412Z,96525.63
2018-10-06T16:51:19.629Z,96530.81
2018-10-06T16:53:48.826Z,96530.45
2018-10-06T16:56:18.431Z,96531.34
2018-10-06T16:58:47.652Z,96535.02
2018-10-06T17:01:17.094Z,96538.61
2018-10-06T17:03:46.372Z,96539.03
2018-10-06T17:06:15.748Z,96537.81
2018-10-06T17:08:45.105Z,96532.72
2018-10-06T17:11:14.514Z,96538.27
2018-10-06T17:13:43.825Z,96527.27
2018-10-06T17:16:13.039Z,96528.91
2018-10-06T17:18:42.340Z,96529.28
2018-10-06T17:21:11.535Z,96530.56
2018-10-06T17:23:40.742Z,96533.53
2018-10-06T17:26:09.958Z,96532.87
2018-10-06T17:28:39.169Z,96539.44
2018-10-06T17:31:08.484Z,96539.67
2018-10-06T17:33:37.670Z,96538.18
2018-10-06T17:36:06.924Z,96537.68
2018-10-06T17:38:36.291Z,96534.44
2018-10-06T17:41:05.551Z,96534.01
2018-10-06T17:43:34.839Z,96535.36
2018-10-06T17:46:04.153Z,96536.17
2018-10-06T17:48:33.405Z,96542.17
2018-10-06T17:51:02.654Z,96542.08
2018-10-06T17:53:31.971Z,96539.76
2018-10-06T17:56:01.235Z,96539.16
2018-10-06T17:58:30.482Z,96536.41
2018-10-06T18:00:59.725Z,96543.95
2018-10-06T18:03:28.957Z,96549.69
2018-10-06T18:05:58.271Z,96550.33
2018-10-06T18:08:27.627Z,96540.61
2018-10-06T18:10:56.872Z,96553.61
2018-10-06T18:13:26.110Z,96543.38
2018-10-06T18:15:55.425Z,96543.88
2018-10-06T18:18:24.820Z,96540.19
2018-10-06T18:20:54.251Z,96546.40
2018-10-06T18:23:23.470Z,96546.06
2018-10-06T18:25:52.751Z,96552.17
2018-10-06T18:28:21.971Z,96546.44
2018-10-06T18:30:51.235Z,96546.78
2018-10-06T18:33:20.485Z,96543.41
2018-10-06T18:35:49.809Z,96551.20
2018-10-06T18:38:19.043Z,96550.50
2018-10-06T18:40:48.276Z,96549.77
2018-10-06T18:43:17.554Z,96556.45
2018-10-06T18:45:46.776Z,96552.79
2018-10-06T18:48:16.056Z,96549.23
2018-10-06T18:50:45.269Z,96554.05
2018-10-06T18:53:14.661Z,96560.72
2018-10-06T18:55:44.037Z,96562.89
2018-10-06T18:58:13.263Z,96566.36
2018-10-06T19:00:42.634Z,96567.44
2018-10-06T19:03:12.015Z,96571.55
2018-10-06T19:05:41.167Z,96573.02
2018-10-06T19:08:10.428Z,96566.58
2018-10-06T19:10:39.728Z,96566.62
2018-10-06T19:13:09.007Z,96565.41
2018-10-06T19:15:38.349Z,96565.84
2018-10-06T19:18:07.546Z,96567.10
2018-10-06T19:20:36.803Z,96564.75
2018-10-06T19:23:06.042Z,96557.86
2018-10-06T19:25:35.339Z,96561.33
2018-10-06T19:28:04.605Z,96563.92
2018-10-06T19:30:33.820Z,96565.14
2018-10-06T19:33:03.068Z,96565.14
2018-10-06T19:35:32.319Z,96559.91
2018-10-06T19:38:01.588Z,96560.22
2018-10-06T19:40:30.863Z,96560.56
2018-10-06T19:43:00.153Z,96566.66
2018-10-06T19:45:29.443Z,96566.44
2018-10-06T19:47:58.741Z,96568.29
2018-10-06T19:50:27.965Z,96574.38
2018-10-06T19:52:57.188Z,96569.11
2018-10-06T19:55:26.447Z,96571.86
2018-10-06T19:57:55.712Z,96578.51
2018-10-06T20:00:25.034Z,96580.97
2018-10-06T20:02:54.259Z,96578.48
2018-10-06T20:05:23.572Z,96577.58
2018-10-06T20:07:52.843Z,96582.77
2018-10-06T20:10:22.071Z,96581.87
2018-10-06T20:12:51.295Z,96584.06
2018-10-06T20:15:20.562Z,96590.84
2018-10-06T20:17:49.780Z,96586.80
2018-10-06T20:20:19.004Z,96594.15
2018-10-06T20:22:48.218Z,96595.30
2018-10-06T20:25:17.436Z,96606.08
2018-10-06T20:27:46.689Z,96601.47
2018-10-06T20:30:15.914Z,96605.39
2018-10-06T20:32:45.154Z,96607.20
2018-10-06T20:35:14.386Z,96603.77
2018-10-06T20:37:43.786Z,96603.30
2018-10-06T20:40:13.091Z,96604.14
2018-10-06T20:42:42.311Z,96603.73
2018-10-06T20:45:11.539Z,96602.52
2018-10-06T20:47:40.760Z,96607.84
2018-10-06T20:50:09.982Z,96606.25
2018-10-06T20:52:39.213Z,96609.81
2018-10-06T20:55:08.478Z,96610.34
2018-10-06T20:57:37.707Z,96612.91
2018-10-06T21:00:08.156Z,96608.02
2018-10-06T21:02:37.382Z,96611.80
2018-10-06T21:05:06.627Z,96610.17
2018-10-06T21:07:35.867Z,96617.69
2018-10-06T21:10:05.108Z,96606.21
2018-10-06T21:12:34.359Z,96607.66
2018-10-06T21:15:03.654Z,96607.75
2018-10-06T21:17:32.915Z,96613.41
2018-10-06T21:20:02.156Z,96611.18
2018-10-06T21:22:31.487Z,96608.16
2018-10-06T21:25:00.703Z,96605.53
2018-10-06T21:27:29.926Z,96591.28
2018-10-06T21:29:59.159Z,96599.55
2018-10-06T21:32:28.383Z,96598.83
2018-10-06T21:34:57.596Z,96597.62
2018-10-06T21:37:26.838Z,96603.80
2018-10-06T21:39:56.090Z,96605.25
2018-10-06T21:42:25.404Z,96608.86
2018-10-06T21:44:54.623Z,96614.47
2018-10-06T21:47:23.841Z,96608.05
2018-10-06T21:49:53.092Z,96605.52
2018-10-06T21:52:22.365Z,96601.65
2018-10-06T21:54:51.567Z,96606.84
2018-10-06T21:57:20.799Z,96597.81
2018-10-06T21:59:50.024Z,96593.05
2018-10-06T22:02:19.260Z,96592.13
2018-10-06T22:04:48.529Z,96586.95
2018-10-06T22:07:17.728Z,96584.67
2018-10-06T22:09:46.935Z,96575.95
2018-10-06T22:12:16.175Z,96582.03
2018-10-06T22:14:45.405Z,96579.64
2018-10-06T22:17:14.640Z,96582.34
2018-10-06T22:19:43.874Z,96588.03
2018-10-06T22:22:13.102Z,96584.44
2018-10-06T22:24:42.339Z,96583.35
2018-10-06T22:27:11.631Z,96578.84
2018-10-06T22:29:40.857Z,96581.87
2018-10-06T22:32:10.072Z,96579.90
2018-10-06T22:34:39.304Z,96581.38
2018-10-06T22:37:08.554Z,96569.46
2018-10-06T22:39:37.808Z,96578.19
2018-10-06T22:42:07.132Z,96580.33
2018-10-06T22:44:36.433Z,96588.91
2018-10-06T22:47:05.685Z,96584.55
2018-10-06T22:49:34.995Z,96579.91
2018-10-06T22:52:04.278Z,96572.18
2018-10-06T22:54:33.583Z,96577.42
2018-10-06T22:57:02.928Z,96573.17
2018-10-06T22:59:32.137Z,96564.59
2018-10-06T23:02:01.441Z,96576.63
2018-10-06T23:04:30.695Z,96570.57
2018-10-06T23:06:59.956Z,96570.12
2018-10-06T23:09:29.227Z,96562.36
2018-10-06T23:11:58.523Z,96564.05
2018-10-06T23:14:27.764Z,96562.38
2018-10-06T23:16:57.051Z,96569.30
2018-10-06T23:19:26.354Z,96564.98
2018-10-06T23:21:55.656Z,96563.67
2018-10-06T23:24:24.921Z,96565.78
2018-10-06T23:26:54.371Z,96565.23
2018-10-06T23:29:23.895Z,96571.16
2018-10-06T23:31:53.177Z,96579.62
2018-10-06T23:34:22.457Z,96575.64
2018-10-06T23:36:51.729Z,96571.30
2018-10-06T23:39:21.047Z,96566.14
2018-10-06T23:41:50.382Z,96569.64
2018-10-06T23:44:19.653Z,96572.69
2018-10-06T23:46:48.952Z,96572.25
2018-10-06T23:49:18.194Z,96573.93
2018-10-06T23:51:47.437Z,96573.50
2018-10-06T23:54:16.687Z,96568.27
2018-10-06T23:56:45.973Z,96567.87
2018-10-06T23:59:15.219Z,96568.78
